sensor_id;sensor_type;location;lat;lon;timestamp;temperature;humidity
5901;DHT22;2976;49.764;9.796;2023-12-28T00:01:58;5.70;99.90
5901;DHT22;2976;49.764;9.796;2023-12-28T00:04:23;5.90;1.00
5901;DHT22;2976;49.764;9.796;2023-12-28T00:06:49;5.90;1.00
5901;DHT22;2976;49.764;9.796;2023-12-28T00:09:14;5.80;99.90
5901;DHT22;2976;49.764;9.796;2023-12-28T00:11:40;5.60;1.00
5901;DHT22;2976;49.764;9.796;2023-12-28T00:14:06;5.50;99.90
5901;DHT22;2976;49.764;9.796;2023-12-28T00:16:32;5.40;99.90
5901;DHT22;2976;49.764;9.796;2023-12-28T00:18:58;5.20;99.90
5901;DHT22;2976;49.764;9.796;2023-12-28T00:21:23;5.20;99.90
5901;DHT22;2976;49.764;9.796;2023-12-28T00:23:49;5.10;1.00
5901;DHT22;2976;49.764;9.796;2023-12-28T00:26:14;5.10;1.00
5901;DHT22;2976;49.764;9.796;2023-12-28T00:28:46;5.20;1.00
5901;DHT22;2976;49.764;9.796;2023-12-28T00:31:12;5.10;1.00
5901;DHT22;2976;49.764;9.796;2023-12-28T00:33:37;5.00;1.00
5901;DHT22;2976;49.764;9.796;2023-12-28T00:36:03;4.90;1.00
5901;DHT22;2976;49.764;9.796;2023-12-28T00:38:29;4.90;1.00
5901;DHT22;2976;49.764;9.796;2023-12-28T00:40:54;5.00;1.00
5901;DHT22;2976;49.764;9.796;2023-12-28T00:43:20;5.10;1.00
5901;DHT22;2976;49.764;9.796;2023-12-28T00:45:45;5.20;1.00
5901;DHT22;2976;49.764;9.796;2023-12-28T00:48:11;5.10;1.00
5901;DHT22;2976;49.764;9.796;2023-12-28T00:50:36;5.00;1.00
5901;DHT22;2976;49.764;9.796;2023-12-28T00:53:02;4.90;1.00
5901;DHT22;2976;49.764;9.796;2023-12-28T00:55:27;4.90;1.00
5901;DHT22;2976;49.764;9.796;2023-12-28T00:57:53;5.00;1.00
5901;DHT22;2976;49.764;9.796;2023-12-28T01:00:19;5.20;1.00
5901;DHT22;2976;49.764;9.796;2023-12-28T01:02:44;5.20;1.00
5901;DHT22;2976;49.764;9.796;2023-12-28T01:05:12;5.30;1.00
5901;DHT22;2976;49.764;9.796;2023-12-28T01:07:38;5.30;1.00
5901;DHT22;2976;49.764;9.796;2023-12-28T01:10:04;5.40;1.00
5901;DHT22;2976;49.764;9.796;2023-12-28T01:12:29;5.30;1.00
5901;DHT22;2976;49.764;9.796;2023-12-28T01:14:55;5.40;1.00
5901;DHT22;2976;49.764;9.796;2023-12-28T01:17:20;5.40;1.00
5901;DHT22;2976;49.764;9.796;2023-12-28T01:19:46;5.40;1.00
5901;DHT22;2976;49.764;9.796;2023-12-28T01:22:12;5.50;1.00
5901;DHT22;2976;49.764;9.796;2023-12-28T01:24:37;5.50;1.00
5901;DHT22;2976;49.764;9.796;2023-12-28T01:27:03;5.50;1.00
5901;DHT22;2976;49.764;9.796;2023-12-28T01:29:29;5.40;1.50
5901;DHT22;2976;49.764;9.796;2023-12-28T01:31:54;5.40;1.00
5901;DHT22;2976;49.764;9.796;2023-12-28T01:34:20;5.40;1.00
5901;DHT22;2976;49.764;9.796;2023-12-28T01:36:45;5.40;1.00
5901;DHT22;2976;49.764;9.796;2023-12-28T01:39:11;5.50;1.00
5901;DHT22;2976;49.764;9.796;2023-12-28T01:41:36;5.50;1.00
5901;DHT22;2976;49.764;9.796;2023-12-28T01:44:02;5.60;2.80
5901;DHT22;2976;49.764;9.796;2023-12-28T01:46:28;5.60;1.00
5901;DHT22;2976;49.764;9.796;2023-12-28T01:48:54;5.60;1.90
5901;DHT22;2976;49.764;9.796;2023-12-28T01:51:21;5.60;1.30
5901;DHT22;2976;49.764;9.796;2023-12-28T01:53:49;5.60;1.90
5901;DHT22;2976;49.764;9.796;2023-12-28T01:56:18;5.60;1.00
5901;DHT22;2976;49.764;9.796;2023-12-28T01:58:44;5.70;1.00
5901;DHT22;2976;49.764;9.796;2023-12-28T02:01:11;5.80;1.00
5901;DHT22;2976;49.764;9.796;2023-12-28T02:03:38;5.80;1.00
5901;DHT22;2976;49.764;9.796;2023-12-28T02:06:04;5.90;1.00
5901;DHT22;2976;49.764;9.796;2023-12-28T02:08:31;5.90;1.00
5901;DHT22;2976;49.764;9.796;2023-12-28T02:10:57;5.80;1.00
5901;DHT22;2976;49.764;9.796;2023-12-28T02:13:24;5.80;1.00
5901;DHT22;2976;49.764;9.796;2023-12-28T02:15:58;5.80;1.00
5901;DHT22;2976;49.764;9.796;2023-12-28T02:18:28;5.70;1.00
5901;DHT22;2976;49.764;9.796;2023-12-28T02:20:54;5.70;1.00
5901;DHT22;2976;49.764;9.796;2023-12-28T02:23:20;5.70;1.00
5901;DHT22;2976;49.764;9.796;2023-12-28T02:25:46;5.80;1.00
5901;DHT22;2976;49.764;9.796;2023-12-28T02:28:11;5.80;1.00
5901;DHT22;2976;49.764;9.796;2023-12-28T02:30:37;5.90;1.00
5901;DHT22;2976;49.764;9.796;2023-12-28T02:35:57;6.00;1.00
5901;DHT22;2976;49.764;9.796;2023-12-28T02:38:25;6.10;1.00
5901;DHT22;2976;49.764;9.796;2023-12-28T02:40:52;6.10;1.00
5901;DHT22;2976;49.764;9.796;2023-12-28T02:43:18;6.20;1.00
5901;DHT22;2976;49.764;9.796;2023-12-28T02:45:43;6.30;1.00
5901;DHT22;2976;49.764;9.796;2023-12-28T02:48:09;6.40;1.00
5901;DHT22;2976;49.764;9.796;2023-12-28T02:50:35;6.40;1.00
5901;DHT22;2976;49.764;9.796;2023-12-28T02:53:01;6.50;1.00
5901;DHT22;2976;49.764;9.796;2023-12-28T02:55:27;6.50;1.00
5901;DHT22;2976;49.764;9.796;2023-12-28T02:57:56;6.70;1.00
5901;DHT22;2976;49.764;9.796;2023-12-28T03:00:24;6.70;1.00
5901;DHT22;2976;49.764;9.796;2023-12-28T03:02:50;6.80;1.00
5901;DHT22;2976;49.764;9.796;2023-12-28T03:05:15;6.80;1.00
5901;DHT22;2976;49.764;9.796;2023-12-28T03:07:41;6.90;1.00
5901;DHT22;2976;49.764;9.796;2023-12-28T03:10:08;7.00;1.00
5901;DHT22;2976;49.764;9.796;2023-12-28T03:12:34;7.10;1.00
5901;DHT22;2976;49.764;9.796;2023-12-28T03:14:59;7.20;1.00
5901;DHT22;2976;49.764;9.796;2023-12-28T03:17:25;7.20;1.00
5901;DHT22;2976;49.764;9.796;2023-12-28T03:19:51;7.30;1.00
5901;DHT22;2976;49.764;9.796;2023-12-28T03:22:16;7.30;1.00
5901;DHT22;2976;49.764;9.796;2023-12-28T03:24:43;7.40;1.00
5901;DHT22;2976;49.764;9.796;2023-12-28T03:27:08;7.50;1.00
5901;DHT22;2976;49.764;9.796;2023-12-28T03:29:34;7.50;1.00
5901;DHT22;2976;49.764;9.796;2023-12-28T03:32:00;7.50;1.00
5901;DHT22;2976;49.764;9.796;2023-12-28T03:34:26;7.50;1.00
5901;DHT22;2976;49.764;9.796;2023-12-28T03:36:52;7.50;1.00
5901;DHT22;2976;49.764;9.796;2023-12-28T03:39:18;7.60;1.00
5901;DHT22;2976;49.764;9.796;2023-12-28T03:41:43;7.60;1.00
5901;DHT22;2976;49.764;9.796;2023-12-28T03:44:09;7.70;1.00
5901;DHT22;2976;49.764;9.796;2023-12-28T03:46:34;7.70;1.00
5901;DHT22;2976;49.764;9.796;2023-12-28T03:49:00;7.70;1.00
5901;DHT22;2976;49.764;9.796;2023-12-28T03:51:26;7.70;1.00
5901;DHT22;2976;49.764;9.796;2023-12-28T03:53:51;7.80;1.00
5901;DHT22;2976;49.764;9.796;2023-12-28T03:56:25;7.90;1.00
5901;DHT22;2976;49.764;9.796;2023-12-28T03:58:51;7.90;1.00
5901;DHT22;2976;49.764;9.796;2023-12-28T04:01:21;7.80;1.00
5901;DHT22;2976;49.764;9.796;2023-12-28T04:03:48;7.80;1.00
5901;DHT22;2976;49.764;9.796;2023-12-28T04:06:14;7.80;1.00
5901;DHT22;2976;49.764;9.796;2023-12-28T04:08:43;7.80;1.00
5901;DHT22;2976;49.764;9.796;2023-12-28T04:11:09;7.90;1.00
5901;DHT22;2976;49.764;9.796;2023-12-28T04:13:35;8.00;1.00
5901;DHT22;2976;49.764;9.796;2023-12-28T04:16:01;8.00;1.00
5901;DHT22;2976;49.764;9.796;2023-12-28T04:18:26;8.10;1.00
5901;DHT22;2976;49.764;9.796;2023-12-28T04:20:52;8.10;1.00
5901;DHT22;2976;49.764;9.796;2023-12-28T04:23:18;8.10;1.00
5901;DHT22;2976;49.764;9.796;2023-12-28T04:25:43;8.20;1.00
5901;DHT22;2976;49.764;9.796;2023-12-28T04:28:09;8.20;1.00
5901;DHT22;2976;49.764;9.796;2023-12-28T04:30:34;8.10;1.00
5901;DHT22;2976;49.764;9.796;2023-12-28T04:33:01;8.10;1.00
5901;DHT22;2976;49.764;9.796;2023-12-28T04:35:26;8.00;1.00
5901;DHT22;2976;49.764;9.796;2023-12-28T04:37:52;8.00;1.00
5901;DHT22;2976;49.764;9.796;2023-12-28T04:40:17;8.00;1.00
5901;DHT22;2976;49.764;9.796;2023-12-28T04:42:43;8.00;1.00
5901;DHT22;2976;49.764;9.796;2023-12-28T04:45:09;8.10;1.00
5901;DHT22;2976;49.764;9.796;2023-12-28T04:47:38;8.10;1.00
5901;DHT22;2976;49.764;9.796;2023-12-28T04:50:04;8.40;1.00
5901;DHT22;2976;49.764;9.796;2023-12-28T04:52:30;8.70;1.00
5901;DHT22;2976;49.764;9.796;2023-12-28T04:54:56;9.20;1.00
5901;DHT22;2976;49.764;9.796;2023-12-28T04:57:22;9.40;1.00
5901;DHT22;2976;49.764;9.796;2023-12-28T04:59:50;9.50;1.00
5901;DHT22;2976;49.764;9.796;2023-12-28T05:02:15;9.50;1.00
5901;DHT22;2976;49.764;9.796;2023-12-28T05:04:41;9.50;1.00
5901;DHT22;2976;49.764;9.796;2023-12-28T05:07:07;9.40;1.00
5901;DHT22;2976;49.764;9.796;2023-12-28T05:09:32;9.30;1.00
5901;DHT22;2976;49.764;9.796;2023-12-28T05:11:58;9.40;1.00
5901;DHT22;2976;49.764;9.796;2023-12-28T05:14:23;9.30;1.00
5901;DHT22;2976;49.764;9.796;2023-12-28T05:16:49;9.20;1.00
5901;DHT22;2976;49.764;9.796;2023-12-28T05:19:15;9.10;1.00
5901;DHT22;2976;49.764;9.796;2023-12-28T05:21:40;9.20;1.00
5901;DHT22;2976;49.764;9.796;2023-12-28T05:24:06;9.30;1.00
5901;DHT22;2976;49.764;9.796;2023-12-28T05:26:32;9.30;1.00
5901;DHT22;2976;49.764;9.796;2023-12-28T05:28:57;9.20;1.00
5901;DHT22;2976;49.764;9.796;2023-12-28T05:31:23;9.20;1.00
5901;DHT22;2976;49.764;9.796;2023-12-28T05:33:49;9.20;1.00
5901;DHT22;2976;49.764;9.796;2023-12-28T05:36:14;9.10;1.00
5901;DHT22;2976;49.764;9.796;2023-12-28T05:38:40;9.10;1.00
5901;DHT22;2976;49.764;9.796;2023-12-28T05:41:05;9.10;1.00
5901;DHT22;2976;49.764;9.796;2023-12-28T05:43:31;9.20;1.00
5901;DHT22;2976;49.764;9.796;2023-12-28T05:45:56;9.20;1.00
5901;DHT22;2976;49.764;9.796;2023-12-28T05:48:22;9.20;1.00
5901;DHT22;2976;49.764;9.796;2023-12-28T05:50:47;9.10;1.00
5901;DHT22;2976;49.764;9.796;2023-12-28T05:53:13;9.00;13.70
5901;DHT22;2976;49.764;9.796;2023-12-28T05:55:42;8.90;29.80
5901;DHT22;2976;49.764;9.796;2023-12-28T05:58:11;8.90;52.30
5901;DHT22;2976;49.764;9.796;2023-12-28T06:00:37;8.80;75.40
5901;DHT22;2976;49.764;9.796;2023-12-28T06:03:04;8.70;99.90
5901;DHT22;2976;49.764;9.796;2023-12-28T06:05:30;8.50;99.90
5901;DHT22;2976;49.764;9.796;2023-12-28T06:07:55;8.40;99.90
5901;DHT22;2976;49.764;9.796;2023-12-28T06:10:21;8.30;99.90
5901;DHT22;2976;49.764;9.796;2023-12-28T06:12:46;8.20;99.90
5901;DHT22;2976;49.764;9.796;2023-12-28T06:15:12;8.10;99.90
5901;DHT22;2976;49.764;9.796;2023-12-28T06:17:38;8.10;99.90
5901;DHT22;2976;49.764;9.796;2023-12-28T06:20:03;8.10;99.90
5901;DHT22;2976;49.764;9.796;2023-12-28T06:22:29;8.10;99.90
5901;DHT22;2976;49.764;9.796;2023-12-28T06:24:55;8.10;99.90
5901;DHT22;2976;49.764;9.796;2023-12-28T06:27:21;8.10;99.90
5901;DHT22;2976;49.764;9.796;2023-12-28T06:29:49;8.10;99.90
5901;DHT22;2976;49.764;9.796;2023-12-28T06:32:14;8.00;99.90
5901;DHT22;2976;49.764;9.796;2023-12-28T06:34:40;7.90;99.90
5901;DHT22;2976;49.764;9.796;2023-12-28T06:37:06;7.80;99.90
5901;DHT22;2976;49.764;9.796;2023-12-28T06:39:31;7.80;99.90
5901;DHT22;2976;49.764;9.796;2023-12-28T06:41:57;7.70;99.90
5901;DHT22;2976;49.764;9.796;2023-12-28T06:44:23;7.70;99.90
5901;DHT22;2976;49.764;9.796;2023-12-28T06:46:48;7.70;99.90
5901;DHT22;2976;49.764;9.796;2023-12-28T06:49:14;7.70;99.90
5901;DHT22;2976;49.764;9.796;2023-12-28T06:51:39;7.60;99.90
5901;DHT22;2976;49.764;9.796;2023-12-28T06:54:05;7.60;99.90
5901;DHT22;2976;49.764;9.796;2023-12-28T06:56:31;7.50;99.90
5901;DHT22;2976;49.764;9.796;2023-12-28T06:58:56;7.50;99.90
5901;DHT22;2976;49.764;9.796;2023-12-28T07:01:22;7.50;99.90
5901;DHT22;2976;49.764;9.796;2023-12-28T07:03:47;7.50;99.90
5901;DHT22;2976;49.764;9.796;2023-12-28T07:06:16;7.40;99.90
5901;DHT22;2976;49.764;9.796;2023-12-28T07:08:41;7.40;99.90
5901;DHT22;2976;49.764;9.796;2023-12-28T07:11:10;7.40;99.90
5901;DHT22;2976;49.764;9.796;2023-12-28T07:13:36;7.40;99.90
5901;DHT22;2976;49.764;9.796;2023-12-28T07:16:01;7.50;99.90
5901;DHT22;2976;49.764;9.796;2023-12-28T07:18:27;7.50;99.90
5901;DHT22;2976;49.764;9.796;2023-12-28T07:20:53;7.40;99.90
5901;DHT22;2976;49.764;9.796;2023-12-28T07:23:19;7.40;99.90
5901;DHT22;2976;49.764;9.796;2023-12-28T07:25:45;7.40;99.90
5901;DHT22;2976;49.764;9.796;2023-12-28T07:28:10;7.50;99.90
5901;DHT22;2976;49.764;9.796;2023-12-28T07:30:37;7.50;99.90
5901;DHT22;2976;49.764;9.796;2023-12-28T07:33:02;7.50;99.90
5901;DHT22;2976;49.764;9.796;2023-12-28T07:35:28;7.50;99.90
5901;DHT22;2976;49.764;9.796;2023-12-28T07:37:53;7.40;99.90
5901;DHT22;2976;49.764;9.796;2023-12-28T07:40:20;7.40;99.90
5901;DHT22;2976;49.764;9.796;2023-12-28T07:42:45;7.50;99.90
5901;DHT22;2976;49.764;9.796;2023-12-28T07:45:11;7.40;99.90
5901;DHT22;2976;49.764;9.796;2023-12-28T07:47:36;7.50;99.90
5901;DHT22;2976;49.764;9.796;2023-12-28T07:50:02;7.50;99.90
5901;DHT22;2976;49.764;9.796;2023-12-28T07:52:28;7.50;99.90
5901;DHT22;2976;49.764;9.796;2023-12-28T07:54:54;7.50;99.90
5901;DHT22;2976;49.764;9.796;2023-12-28T07:57:20;7.60;99.90
5901;DHT22;2976;49.764;9.796;2023-12-28T07:59:46;7.60;99.90
5901;DHT22;2976;49.764;9.796;2023-12-28T08:02:11;7.60;99.90
5901;DHT22;2976;49.764;9.796;2023-12-28T08:04:37;7.60;99.90
5901;DHT22;2976;49.764;9.796;2023-12-28T08:07:03;7.60;99.90
5901;DHT22;2976;49.764;9.796;2023-12-28T08:09:29;7.60;99.90
5901;DHT22;2976;49.764;9.796;2023-12-28T08:11:55;7.60;99.90
5901;DHT22;2976;49.764;9.796;2023-12-28T08:14:21;7.70;99.90
5901;DHT22;2976;49.764;9.796;2023-12-28T08:16:46;7.70;99.90
5901;DHT22;2976;49.764;9.796;2023-12-28T08:19:12;7.70;99.90
5901;DHT22;2976;49.764;9.796;2023-12-28T08:21:37;7.70;99.90
5901;DHT22;2976;49.764;9.796;2023-12-28T08:24:03;7.70;99.90
5901;DHT22;2976;49.764;9.796;2023-12-28T08:26:29;7.70;99.90
5901;DHT22;2976;49.764;9.796;2023-12-28T08:28:54;7.70;99.90
5901;DHT22;2976;49.764;9.796;2023-12-28T08:31:21;7.70;99.90
5901;DHT22;2976;49.764;9.796;2023-12-28T08:33:46;7.80;99.90
5901;DHT22;2976;49.764;9.796;2023-12-28T08:36:12;7.80;99.90
5901;DHT22;2976;49.764;9.796;2023-12-28T08:38:38;7.80;99.90
5901;DHT22;2976;49.764;9.796;2023-12-28T08:41:03;7.80;99.90
5901;DHT22;2976;49.764;9.796;2023-12-28T08:43:35;7.80;99.90
5901;DHT22;2976;49.764;9.796;2023-12-28T08:46:00;7.80;99.90
5901;DHT22;2976;49.764;9.796;2023-12-28T08:48:26;7.90;99.90
5901;DHT22;2976;49.764;9.796;2023-12-28T08:50:51;7.80;99.90
5901;DHT22;2976;49.764;9.796;2023-12-28T08:53:17;7.90;99.90
5901;DHT22;2976;49.764;9.796;2023-12-28T08:55:42;7.90;99.90
5901;DHT22;2976;49.764;9.796;2023-12-28T08:58:08;7.90;99.90
5901;DHT22;2976;49.764;9.796;2023-12-28T09:00:33;8.00;99.90
5901;DHT22;2976;49.764;9.796;2023-12-28T09:02:59;8.00;99.90
5901;DHT22;2976;49.764;9.796;2023-12-28T09:05:25;8.00;99.90
5901;DHT22;2976;49.764;9.796;2023-12-28T09:07:50;8.00;99.90
5901;DHT22;2976;49.764;9.796;2023-12-28T09:10:16;8.10;99.90
5901;DHT22;2976;49.764;9.796;2023-12-28T09:12:41;8.10;99.90
5901;DHT22;2976;49.764;9.796;2023-12-28T09:15:08;8.10;99.90
5901;DHT22;2976;49.764;9.796;2023-12-28T09:17:34;8.10;99.90
5901;DHT22;2976;49.764;9.796;2023-12-28T09:20:00;8.10;99.90
5901;DHT22;2976;49.764;9.796;2023-12-28T09:22:27;8.10;99.90
5901;DHT22;2976;49.764;9.796;2023-12-28T09:24:52;8.10;99.90
5901;DHT22;2976;49.764;9.796;2023-12-28T09:27:18;8.10;99.90
5901;DHT22;2976;49.764;9.796;2023-12-28T09:29:44;8.20;99.90
5901;DHT22;2976;49.764;9.796;2023-12-28T09:32:09;8.20;99.90
5901;DHT22;2976;49.764;9.796;2023-12-28T09:34:35;8.20;99.90
5901;DHT22;2976;49.764;9.796;2023-12-28T09:37:01;8.20;99.90
5901;DHT22;2976;49.764;9.796;2023-12-28T09:39:27;8.20;99.90
5901;DHT22;2976;49.764;9.796;2023-12-28T09:42:02;8.20;99.90
5901;DHT22;2976;49.764;9.796;2023-12-28T09:44:30;8.20;99.90
5901;DHT22;2976;49.764;9.796;2023-12-28T09:46:56;8.30;99.90
5901;DHT22;2976;49.764;9.796;2023-12-28T09:49:23;8.30;99.90
5901;DHT22;2976;49.764;9.796;2023-12-28T09:51:49;8.30;99.90
5901;DHT22;2976;49.764;9.796;2023-12-28T09:54:15;8.40;99.90
5901;DHT22;2976;49.764;9.796;2023-12-28T09:56:41;8.40;99.90
5901;DHT22;2976;49.764;9.796;2023-12-28T09:59:07;8.50;99.90
5901;DHT22;2976;49.764;9.796;2023-12-28T10:01:34;8.50;99.90
5901;DHT22;2976;49.764;9.796;2023-12-28T10:03:59;8.60;99.90
5901;DHT22;2976;49.764;9.796;2023-12-28T10:06:25;8.60;99.90
5901;DHT22;2976;49.764;9.796;2023-12-28T10:08:51;8.60;99.90
5901;DHT22;2976;49.764;9.796;2023-12-28T10:11:18;8.70;99.90
5901;DHT22;2976;49.764;9.796;2023-12-28T10:13:44;8.70;99.90
5901;DHT22;2976;49.764;9.796;2023-12-28T10:16:11;8.70;99.90
5901;DHT22;2976;49.764;9.796;2023-12-28T10:18:43;8.70;99.90
5901;DHT22;2976;49.764;9.796;2023-12-28T10:21:09;8.70;99.90
5901;DHT22;2976;49.764;9.796;2023-12-28T10:23:35;8.60;99.90
5901;DHT22;2976;49.764;9.796;2023-12-28T10:26:01;8.60;99.90
5901;DHT22;2976;49.764;9.796;2023-12-28T10:28:27;8.70;99.90
5901;DHT22;2976;49.764;9.796;2023-12-28T10:30:56;8.70;99.90
5901;DHT22;2976;49.764;9.796;2023-12-28T10:33:22;8.70;99.90
5901;DHT22;2976;49.764;9.796;2023-12-28T10:35:50;8.70;99.90
5901;DHT22;2976;49.764;9.796;2023-12-28T10:38:16;8.70;99.90
5901;DHT22;2976;49.764;9.796;2023-12-28T10:40:47;8.70;99.90
5901;DHT22;2976;49.764;9.796;2023-12-28T10:43:17;8.70;99.90
5901;DHT22;2976;49.764;9.796;2023-12-28T10:45:50;8.70;99.90
5901;DHT22;2976;49.764;9.796;2023-12-28T10:48:21;8.70;99.90
5901;DHT22;2976;49.764;9.796;2023-12-28T10:50:52;8.70;99.90
5901;DHT22;2976;49.764;9.796;2023-12-28T10:56:14;8.70;99.90
5901;DHT22;2976;49.764;9.796;2023-12-28T10:58:49;8.80;99.90
5901;DHT22;2976;49.764;9.796;2023-12-28T11:01:21;8.80;99.90
5901;DHT22;2976;49.764;9.796;2023-12-28T11:03:54;8.80;99.90
5901;DHT22;2976;49.764;9.796;2023-12-28T11:06:21;8.80;99.90
5901;DHT22;2976;49.764;9.796;2023-12-28T11:08:47;8.80;99.90
5901;DHT22;2976;49.764;9.796;2023-12-28T11:11:17;8.90;99.90
5901;DHT22;2976;49.764;9.796;2023-12-28T11:13:44;8.90;99.90
5901;DHT22;2976;49.764;9.796;2023-12-28T11:16:10;8.90;99.90
5901;DHT22;2976;49.764;9.796;2023-12-28T11:18:36;8.90;99.90
5901;DHT22;2976;49.764;9.796;2023-12-28T11:21:03;8.90;99.90
5901;DHT22;2976;49.764;9.796;2023-12-28T11:23:28;8.90;99.90
5901;DHT22;2976;49.764;9.796;2023-12-28T11:25:55;8.90;99.90
5901;DHT22;2976;49.764;9.796;2023-12-28T11:28:23;8.90;99.90
5901;DHT22;2976;49.764;9.796;2023-12-28T11:30:49;8.90;99.90
5901;DHT22;2976;49.764;9.796;2023-12-28T11:33:14;8.90;99.90
5901;DHT22;2976;49.764;9.796;2023-12-28T11:35:40;9.00;99.90
5901;DHT22;2976;49.764;9.796;2023-12-28T11:38:11;8.90;99.90
5901;DHT22;2976;49.764;9.796;2023-12-28T11:40:45;8.90;99.90
5901;DHT22;2976;49.764;9.796;2023-12-28T11:43:19;8.90;99.90
5901;DHT22;2976;49.764;9.796;2023-12-28T11:45:55;8.90;99.90
5901;DHT22;2976;49.764;9.796;2023-12-28T11:48:27;8.80;99.90
5901;DHT22;2976;49.764;9.796;2023-12-28T11:50:58;8.80;99.90
5901;DHT22;2976;49.764;9.796;2023-12-28T11:53:24;8.80;99.90
5901;DHT22;2976;49.764;9.796;2023-12-28T11:55:51;8.80;99.90
5901;DHT22;2976;49.764;9.796;2023-12-28T11:58:17;8.90;99.90
5901;DHT22;2976;49.764;9.796;2023-12-28T12:00:43;8.80;99.90
5901;DHT22;2976;49.764;9.796;2023-12-28T12:03:13;8.90;99.90
5901;DHT22;2976;49.764;9.796;2023-12-28T12:05:39;8.90;99.90
5901;DHT22;2976;49.764;9.796;2023-12-28T12:08:10;9.00;99.90
5901;DHT22;2976;49.764;9.796;2023-12-28T12:10:40;9.00;99.90
5901;DHT22;2976;49.764;9.796;2023-12-28T12:13:06;9.10;99.90
5901;DHT22;2976;49.764;9.796;2023-12-28T12:15:31;9.20;99.90
5901;DHT22;2976;49.764;9.796;2023-12-28T12:17:57;9.30;99.90
5901;DHT22;2976;49.764;9.796;2023-12-28T12:20:23;9.30;99.90
5901;DHT22;2976;49.764;9.796;2023-12-28T12:22:49;9.30;99.90
5901;DHT22;2976;49.764;9.796;2023-12-28T12:25:16;9.30;99.90
5901;DHT22;2976;49.764;9.796;2023-12-28T12:27:44;9.30;99.90
5901;DHT22;2976;49.764;9.796;2023-12-28T12:30:09;9.40;99.90
5901;DHT22;2976;49.764;9.796;2023-12-28T12:32:35;9.40;99.90
5901;DHT22;2976;49.764;9.796;2023-12-28T12:35:05;9.30;99.90
5901;DHT22;2976;49.764;9.796;2023-12-28T12:37:31;9.30;99.90
5901;DHT22;2976;49.764;9.796;2023-12-28T12:39:57;9.30;99.90
5901;DHT22;2976;49.764;9.796;2023-12-28T12:42:22;9.20;99.90
5901;DHT22;2976;49.764;9.796;2023-12-28T12:44:48;9.20;99.90
5901;DHT22;2976;49.764;9.796;2023-12-28T12:47:13;9.20;99.90
5901;DHT22;2976;49.764;9.796;2023-12-28T12:49:39;9.20;99.90
5901;DHT22;2976;49.764;9.796;2023-12-28T12:52:07;9.20;99.90
5901;DHT22;2976;49.764;9.796;2023-12-28T12:54:33;9.20;99.90
5901;DHT22;2976;49.764;9.796;2023-12-28T12:56:59;9.20;99.90
5901;DHT22;2976;49.764;9.796;2023-12-28T12:59:24;9.20;99.90
5901;DHT22;2976;49.764;9.796;2023-12-28T13:01:51;9.30;99.90
5901;DHT22;2976;49.764;9.796;2023-12-28T13:04:18;9.30;99.90
5901;DHT22;2976;49.764;9.796;2023-12-28T13:06:44;9.20;99.90
5901;DHT22;2976;49.764;9.796;2023-12-28T13:11:45;9.00;99.90
5901;DHT22;2976;49.764;9.796;2023-12-28T13:14:14;9.00;99.90
5901;DHT22;2976;49.764;9.796;2023-12-28T13:16:40;8.90;99.90
5901;DHT22;2976;49.764;9.796;2023-12-28T13:19:05;9.00;99.90
5901;DHT22;2976;49.764;9.796;2023-12-28T13:21:31;9.10;99.90
5901;DHT22;2976;49.764;9.796;2023-12-28T13:23:56;9.20;99.90
5901;DHT22;2976;49.764;9.796;2023-12-28T13:26:24;9.20;99.90
5901;DHT22;2976;49.764;9.796;2023-12-28T13:28:50;9.20;99.90
5901;DHT22;2976;49.764;9.796;2023-12-28T13:31:16;9.20;99.90
5901;DHT22;2976;49.764;9.796;2023-12-28T13:33:43;9.20;99.90
5901;DHT22;2976;49.764;9.796;2023-12-28T13:36:09;9.30;99.90
5901;DHT22;2976;49.764;9.796;2023-12-28T13:38:34;9.20;99.90
5901;DHT22;2976;49.764;9.796;2023-12-28T13:41:00;9.20;99.90
5901;DHT22;2976;49.764;9.796;2023-12-28T13:43:25;9.10;99.90
5901;DHT22;2976;49.764;9.796;2023-12-28T13:45:51;9.10;99.90
5901;DHT22;2976;49.764;9.796;2023-12-28T13:48:16;9.00;99.90
5901;DHT22;2976;49.764;9.796;2023-12-28T13:50:42;9.00;99.90
5901;DHT22;2976;49.764;9.796;2023-12-28T13:53:09;9.00;99.90
5901;DHT22;2976;49.764;9.796;2023-12-28T13:55:34;9.10;99.90
5901;DHT22;2976;49.764;9.796;2023-12-28T13:58:01;9.10;99.90
5901;DHT22;2976;49.764;9.796;2023-12-28T14:00:26;9.10;99.90
5901;DHT22;2976;49.764;9.796;2023-12-28T14:02:52;9.20;99.90
5901;DHT22;2976;49.764;9.796;2023-12-28T14:05:18;9.20;99.90
5901;DHT22;2976;49.764;9.796;2023-12-28T14:07:44;9.20;99.90
5901;DHT22;2976;49.764;9.796;2023-12-28T14:10:10;9.20;99.90
5901;DHT22;2976;49.764;9.796;2023-12-28T14:12:35;9.30;99.90
5901;DHT22;2976;49.764;9.796;2023-12-28T14:15:01;9.30;99.90
5901;DHT22;2976;49.764;9.796;2023-12-28T14:17:26;9.30;99.90
5901;DHT22;2976;49.764;9.796;2023-12-28T14:19:52;9.30;99.90
5901;DHT22;2976;49.764;9.796;2023-12-28T14:22:17;9.20;99.90
5901;DHT22;2976;49.764;9.796;2023-12-28T14:24:43;9.20;99.90
5901;DHT22;2976;49.764;9.796;2023-12-28T14:27:09;9.20;99.90
5901;DHT22;2976;49.764;9.796;2023-12-28T14:29:37;9.20;99.90
5901;DHT22;2976;49.764;9.796;2023-12-28T14:32:03;9.30;99.90
5901;DHT22;2976;49.764;9.796;2023-12-28T14:34:28;9.20;99.90
5901;DHT22;2976;49.764;9.796;2023-12-28T14:36:56;9.20;99.90
5901;DHT22;2976;49.764;9.796;2023-12-28T14:39:22;9.10;99.90
5901;DHT22;2976;49.764;9.796;2023-12-28T14:41:48;9.10;99.90
5901;DHT22;2976;49.764;9.796;2023-12-28T14:44:13;9.10;99.90
5901;DHT22;2976;49.764;9.796;2023-12-28T14:46:39;9.10;99.90
5901;DHT22;2976;49.764;9.796;2023-12-28T14:49:05;9.10;99.90
5901;DHT22;2976;49.764;9.796;2023-12-28T14:51:30;9.10;99.90
5901;DHT22;2976;49.764;9.796;2023-12-28T14:53:56;9.10;99.90
5901;DHT22;2976;49.764;9.796;2023-12-28T14:56:22;9.00;99.90
5901;DHT22;2976;49.764;9.796;2023-12-28T14:58:47;9.00;99.90
5901;DHT22;2976;49.764;9.796;2023-12-28T15:01:19;8.90;99.90
5901;DHT22;2976;49.764;9.796;2023-12-28T15:03:48;8.90;99.90
5901;DHT22;2976;49.764;9.796;2023-12-28T15:06:14;8.80;99.90
5901;DHT22;2976;49.764;9.796;2023-12-28T15:08:39;8.80;99.90
5901;DHT22;2976;49.764;9.796;2023-12-28T15:11:05;8.80;99.90
5901;DHT22;2976;49.764;9.796;2023-12-28T15:13:36;8.80;99.90
5901;DHT22;2976;49.764;9.796;2023-12-28T15:16:02;8.80;99.90
5901;DHT22;2976;49.764;9.796;2023-12-28T15:18:29;8.70;99.90
5901;DHT22;2976;49.764;9.796;2023-12-28T15:20:55;8.70;99.90
5901;DHT22;2976;49.764;9.796;2023-12-28T15:23:21;8.80;99.90
5901;DHT22;2976;49.764;9.796;2023-12-28T15:25:47;8.70;99.90
5901;DHT22;2976;49.764;9.796;2023-12-28T15:28:13;8.70;99.90
5901;DHT22;2976;49.764;9.796;2023-12-28T15:30:39;8.70;99.90
5901;DHT22;2976;49.764;9.796;2023-12-28T15:33:05;8.70;99.90
5901;DHT22;2976;49.764;9.796;2023-12-28T15:35:30;8.70;99.90
5901;DHT22;2976;49.764;9.796;2023-12-28T15:37:56;8.70;99.90
5901;DHT22;2976;49.764;9.796;2023-12-28T15:40:22;8.70;99.90
5901;DHT22;2976;49.764;9.796;2023-12-28T15:42:49;8.70;99.90
5901;DHT22;2976;49.764;9.796;2023-12-28T15:45:14;8.70;99.90
5901;DHT22;2976;49.764;9.796;2023-12-28T15:47:40;8.70;99.90
5901;DHT22;2976;49.764;9.796;2023-12-28T15:50:06;8.70;99.90
5901;DHT22;2976;49.764;9.796;2023-12-28T15:52:31;8.70;99.90
5901;DHT22;2976;49.764;9.796;2023-12-28T15:54:57;8.70;99.90
5901;DHT22;2976;49.764;9.796;2023-12-28T15:57:23;8.70;99.90
5901;DHT22;2976;49.764;9.796;2023-12-28T15:59:48;8.70;99.90
5901;DHT22;2976;49.764;9.796;2023-12-28T16:02:14;8.70;99.90
5901;DHT22;2976;49.764;9.796;2023-12-28T16:04:40;8.70;99.90
5901;DHT22;2976;49.764;9.796;2023-12-28T16:07:05;8.70;99.90
5901;DHT22;2976;49.764;9.796;2023-12-28T16:09:31;8.70;99.90
5901;DHT22;2976;49.764;9.796;2023-12-28T16:11:58;8.70;99.90
5901;DHT22;2976;49.764;9.796;2023-12-28T16:14:23;8.60;99.90
5901;DHT22;2976;49.764;9.796;2023-12-28T16:16:49;8.60;99.90
5901;DHT22;2976;49.764;9.796;2023-12-28T16:19:15;8.60;99.90
5901;DHT22;2976;49.764;9.796;2023-12-28T16:21:41;8.50;99.90
5901;DHT22;2976;49.764;9.796;2023-12-28T16:24:07;8.50;99.90
5901;DHT22;2976;49.764;9.796;2023-12-28T16:26:33;8.50;99.90